sensor_id;sensor_type;location;lat;lon;timestamp;P1;durP1;ratioP1;P2;durP2;ratioP2
10715;SDS011;5409;42.620;23.316;2024-03-02T00:01:39;16.80;;;9.02;;
10715;SDS011;5409;42.620;23.316;2024-03-02T00:04:04;20.70;;;10.25;;
10715;SDS011;5409;42.620;23.316;2024-03-02T00:06:31;19.73;;;9.18;;
10715;SDS011;5409;42.620;23.316;2024-03-02T00:08:57;20.27;;;9.32;;
10715;SDS011;5409;42.620;23.316;2024-03-02T00:11:24;22.83;;;9.98;;
10715;SDS011;5409;42.620;23.316;2024-03-02T00:13:51;17.67;;;9.38;;
10715;SDS011;5409;42.620;23.316;2024-03-02T00:16:18;21.40;;;10.45;;
10715;SDS011;5409;42.620;23.316;2024-03-02T00:18:43;24.25;;;11.70;;
10715;SDS011;5409;42.620;23.316;2024-03-02T00:21:09;22.58;;;10.43;;
10715;SDS011;5409;42.620;23.316;2024-03-02T00:23:35;20.08;;;10.35;;
10715;SDS011;5409;42.620;23.316;2024-03-02T00:26:01;20.40;;;9.88;;
10715;SDS011;5409;42.620;23.316;2024-03-02T00:28:27;22.52;;;10.82;;
10715;SDS011;5409;42.620;23.316;2024-03-02T00:30:56;24.33;;;11.55;;
10715;SDS011;5409;42.620;23.316;2024-03-02T00:33:47;25.65;;;11.57;;
10715;SDS011;5409;42.620;23.316;2024-03-02T00:36:14;26.70;;;11.93;;
10715;SDS011;5409;42.620;23.316;2024-03-02T00:38:46;22.48;;;9.98;;
10715;SDS011;5409;42.620;23.316;2024-03-02T00:41:31;25.48;;;11.88;;
10715;SDS011;5409;42.620;23.316;2024-03-02T00:43:58;22.85;;;11.95;;
10715;SDS011;5409;42.620;23.316;2024-03-02T00:46:27;35.58;;;14.13;;
10715;SDS011;5409;42.620;23.316;2024-03-02T00:48:57;30.70;;;12.18;;
10715;SDS011;5409;42.620;23.316;2024-03-02T00:51:24;27.67;;;12.05;;
10715;SDS011;5409;42.620;23.316;2024-03-02T00:53:51;24.75;;;12.07;;
10715;SDS011;5409;42.620;23.316;2024-03-02T00:56:20;23.52;;;11.68;;
10715;SDS011;5409;42.620;23.316;2024-03-02T00:58:46;28.55;;;12.50;;
10715;SDS011;5409;42.620;23.316;2024-03-02T01:01:11;22.88;;;11.55;;
10715;SDS011;5409;42.620;23.316;2024-03-02T01:03:37;28.00;;;11.27;;
10715;SDS011;5409;42.620;23.316;2024-03-02T01:06:03;23.67;;;10.52;;
10715;SDS011;5409;42.620;23.316;2024-03-02T01:08:29;22.90;;;10.85;;
10715;SDS011;5409;42.620;23.316;2024-03-02T01:10:54;27.70;;;12.02;;
10715;SDS011;5409;42.620;23.316;2024-03-02T01:13:21;26.95;;;12.63;;
10715;SDS011;5409;42.620;23.316;2024-03-02T01:15:47;23.98;;;10.95;;
10715;SDS011;5409;42.620;23.316;2024-03-02T01:18:13;27.83;;;11.70;;
10715;SDS011;5409;42.620;23.316;2024-03-02T01:20:38;23.88;;;11.30;;
10715;SDS011;5409;42.620;23.316;2024-03-02T01:23:04;24.15;;;12.98;;
10715;SDS011;5409;42.620;23.316;2024-03-02T01:25:29;26.15;;;11.75;;
10715;SDS011;5409;42.620;23.316;2024-03-02T01:27:54;24.33;;;11.23;;
10715;SDS011;5409;42.620;23.316;2024-03-02T01:30:19;19.85;;;10.00;;
10715;SDS011;5409;42.620;23.316;2024-03-02T01:32:45;28.13;;;12.80;;
10715;SDS011;5409;42.620;23.316;2024-03-02T01:35:11;23.30;;;10.70;;
10715;SDS011;5409;42.620;23.316;2024-03-02T01:37:36;25.63;;;11.68;;
10715;SDS011;5409;42.620;23.316;2024-03-02T01:40:01;19.15;;;9.38;;
10715;SDS011;5409;42.620;23.316;2024-03-02T01:42:28;24.77;;;11.45;;
10715;SDS011;5409;42.620;23.316;2024-03-02T01:44:53;23.63;;;10.70;;
10715;SDS011;5409;42.620;23.316;2024-03-02T01:47:18;26.38;;;11.93;;
10715;SDS011;5409;42.620;23.316;2024-03-02T01:49:44;21.08;;;11.00;;
10715;SDS011;5409;42.620;23.316;2024-03-02T01:52:09;18.95;;;9.65;;
10715;SDS011;5409;42.620;23.316;2024-03-02T01:54:36;25.17;;;9.98;;
10715;SDS011;5409;42.620;23.316;2024-03-02T01:57:01;25.38;;;9.90;;
10715;SDS011;5409;42.620;23.316;2024-03-02T01:59:26;22.52;;;10.02;;
10715;SDS011;5409;42.620;23.316;2024-03-02T02:01:52;20.40;;;10.05;;
10715;SDS011;5409;42.620;23.316;2024-03-02T02:04:17;20.98;;;9.90;;
10715;SDS011;5409;42.620;23.316;2024-03-02T02:06:46;26.63;;;10.50;;
10715;SDS011;5409;42.620;23.316;2024-03-02T02:09:11;24.83;;;10.32;;
10715;SDS011;5409;42.620;23.316;2024-03-02T02:11:37;20.30;;;9.38;;
10715;SDS011;5409;42.620;23.316;2024-03-02T02:14:02;20.90;;;8.30;;
10715;SDS011;5409;42.620;23.316;2024-03-02T02:16:28;18.23;;;10.05;;
10715;SDS011;5409;42.620;23.316;2024-03-02T02:18:53;21.83;;;10.20;;
10715;SDS011;5409;42.620;23.316;2024-03-02T02:21:22;19.05;;;10.35;;
10715;SDS011;5409;42.620;23.316;2024-03-02T02:23:48;19.38;;;9.45;;
10715;SDS011;5409;42.620;23.316;2024-03-02T02:26:13;20.17;;;10.30;;
10715;SDS011;5409;42.620;23.316;2024-03-02T02:28:39;19.38;;;9.40;;
10715;SDS011;5409;42.620;23.316;2024-03-02T02:31:11;25.10;;;10.23;;
10715;SDS011;5409;42.620;23.316;2024-03-02T02:33:38;18.92;;;9.40;;
10715;SDS011;5409;42.620;23.316;2024-03-02T02:36:05;22.38;;;9.80;;
10715;SDS011;5409;42.620;23.316;2024-03-02T02:38:30;19.30;;;8.25;;
10715;SDS011;5409;42.620;23.316;2024-03-02T02:40:57;21.60;;;9.27;;
10715;SDS011;5409;42.620;23.316;2024-03-02T02:43:23;19.70;;;9.23;;
10715;SDS011;5409;42.620;23.316;2024-03-02T02:45:48;17.13;;;9.88;;
10715;SDS011;5409;42.620;23.316;2024-03-02T02:48:13;20.58;;;10.02;;
10715;SDS011;5409;42.620;23.316;2024-03-02T02:50:39;19.88;;;8.75;;
10715;SDS011;5409;42.620;23.316;2024-03-02T02:53:04;21.58;;;9.38;;
10715;SDS011;5409;42.620;23.316;2024-03-02T02:55:31;23.23;;;9.32;;
10715;SDS011;5409;42.620;23.316;2024-03-02T02:57:56;17.88;;;10.30;;
10715;SDS011;5409;42.620;23.316;2024-03-02T03:00:22;19.48;;;9.13;;
10715;SDS011;5409;42.620;23.316;2024-03-02T03:02:48;19.75;;;9.32;;
10715;SDS011;5409;42.620;23.316;2024-03-02T03:05:14;24.15;;;9.73;;
10715;SDS011;5409;42.620;23.316;2024-03-02T03:07:40;19.08;;;9.13;;
10715;SDS011;5409;42.620;23.316;2024-03-02T03:10:07;26.55;;;10.57;;
10715;SDS011;5409;42.620;23.316;2024-03-02T03:12:33;23.20;;;10.75;;
10715;SDS011;5409;42.620;23.316;2024-03-02T03:14:59;20.17;;;9.48;;
10715;SDS011;5409;42.620;23.316;2024-03-02T03:17:25;26.17;;;10.23;;
10715;SDS011;5409;42.620;23.316;2024-03-02T03:19:52;27.25;;;11.23;;
10715;SDS011;5409;42.620;23.316;2024-03-02T03:22:18;23.20;;;11.07;;
10715;SDS011;5409;42.620;23.316;2024-03-02T03:24:43;23.88;;;10.20;;
10715;SDS011;5409;42.620;23.316;2024-03-02T03:27:09;21.25;;;10.70;;
10715;SDS011;5409;42.620;23.316;2024-03-02T03:29:36;27.88;;;13.68;;
10715;SDS011;5409;42.620;23.316;2024-03-02T03:32:01;29.02;;;11.82;;
10715;SDS011;5409;42.620;23.316;2024-03-02T03:34:27;28.35;;;13.73;;
10715;SDS011;5409;42.620;23.316;2024-03-02T03:36:54;27.52;;;13.43;;
10715;SDS011;5409;42.620;23.316;2024-03-02T03:39:19;29.27;;;11.93;;
10715;SDS011;5409;42.620;23.316;2024-03-02T03:41:45;30.63;;;14.02;;
10715;SDS011;5409;42.620;23.316;2024-03-02T03:44:10;28.33;;;11.90;;
10715;SDS011;5409;42.620;23.316;2024-03-02T03:46:36;31.63;;;12.82;;
10715;SDS011;5409;42.620;23.316;2024-03-02T03:49:01;28.67;;;12.23;;
10715;SDS011;5409;42.620;23.316;2024-03-02T03:51:27;26.67;;;11.35;;
10715;SDS011;5409;42.620;23.316;2024-03-02T03:53:52;27.70;;;12.10;;
10715;SDS011;5409;42.620;23.316;2024-03-02T03:56:17;33.72;;;13.48;;
10715;SDS011;5409;42.620;23.316;2024-03-02T03:58:43;30.63;;;13.48;;
10715;SDS011;5409;42.620;23.316;2024-03-02T04:01:08;31.02;;;13.07;;
10715;SDS011;5409;42.620;23.316;2024-03-02T04:03:34;27.88;;;13.30;;
10715;SDS011;5409;42.620;23.316;2024-03-02T04:05:59;25.83;;;12.68;;
10715;SDS011;5409;42.620;23.316;2024-03-02T04:08:25;25.10;;;11.88;;
10715;SDS011;5409;42.620;23.316;2024-03-02T04:10:50;27.55;;;11.95;;
10715;SDS011;5409;42.620;23.316;2024-03-02T04:13:15;28.67;;;11.77;;
10715;SDS011;5409;42.620;23.316;2024-03-02T04:15:41;21.50;;;11.32;;
10715;SDS011;5409;42.620;23.316;2024-03-02T04:18:06;24.83;;;12.10;;
10715;SDS011;5409;42.620;23.316;2024-03-02T04:20:31;27.42;;;12.15;;
10715;SDS011;5409;42.620;23.316;2024-03-02T04:22:57;30.58;;;11.95;;
10715;SDS011;5409;42.620;23.316;2024-03-02T04:25:22;29.85;;;12.63;;
10715;SDS011;5409;42.620;23.316;2024-03-02T04:27:47;26.50;;;11.32;;
10715;SDS011;5409;42.620;23.316;2024-03-02T04:30:13;30.05;;;11.70;;
10715;SDS011;5409;42.620;23.316;2024-03-02T04:32:38;25.52;;;12.45;;
10715;SDS011;5409;42.620;23.316;2024-03-02T04:35:04;25.45;;;10.55;;
10715;SDS011;5409;42.620;23.316;2024-03-02T04:37:31;25.40;;;11.70;;
10715;SDS011;5409;42.620;23.316;2024-03-02T04:39:59;28.20;;;12.60;;
10715;SDS011;5409;42.620;23.316;2024-03-02T04:42:24;29.88;;;14.45;;
10715;SDS011;5409;42.620;23.316;2024-03-02T04:44:50;26.80;;;12.00;;
10715;SDS011;5409;42.620;23.316;2024-03-02T04:47:15;26.17;;;12.18;;
10715;SDS011;5409;42.620;23.316;2024-03-02T04:49:40;25.98;;;10.25;;
10715;SDS011;5409;42.620;23.316;2024-03-02T04:52:06;25.00;;;10.70;;
10715;SDS011;5409;42.620;23.316;2024-03-02T04:54:31;29.73;;;12.02;;
10715;SDS011;5409;42.620;23.316;2024-03-02T04:56:57;22.77;;;10.40;;
10715;SDS011;5409;42.620;23.316;2024-03-02T04:59:23;25.10;;;11.52;;
10715;SDS011;5409;42.620;23.316;2024-03-02T05:01:48;27.08;;;11.40;;
10715;SDS011;5409;42.620;23.316;2024-03-02T05:04:14;25.98;;;11.95;;
10715;SDS011;5409;42.620;23.316;2024-03-02T05:06:40;23.75;;;11.32;;
10715;SDS011;5409;42.620;23.316;2024-03-02T05:09:06;29.58;;;12.32;;
10715;SDS011;5409;42.620;23.316;2024-03-02T05:11:32;27.73;;;12.07;;
10715;SDS011;5409;42.620;23.316;2024-03-02T05:14:07;26.02;;;11.77;;
10715;SDS011;5409;42.620;23.316;2024-03-02T05:16:32;23.83;;;12.27;;
10715;SDS011;5409;42.620;23.316;2024-03-02T05:18:59;30.02;;;13.18;;
10715;SDS011;5409;42.620;23.316;2024-03-02T05:21:24;24.40;;;11.73;;
10715;SDS011;5409;42.620;23.316;2024-03-02T05:23:49;24.63;;;11.18;;
10715;SDS011;5409;42.620;23.316;2024-03-02T05:26:15;24.00;;;10.38;;
10715;SDS011;5409;42.620;23.316;2024-03-02T05:28:40;23.80;;;10.07;;
10715;SDS011;5409;42.620;23.316;2024-03-02T05:31:06;27.25;;;11.32;;
10715;SDS011;5409;42.620;23.316;2024-03-02T05:33:31;25.90;;;12.23;;
10715;SDS011;5409;42.620;23.316;2024-03-02T05:35:58;27.27;;;12.18;;
10715;SDS011;5409;42.620;23.316;2024-03-02T05:38:23;21.95;;;11.00;;
10715;SDS011;5409;42.620;23.316;2024-03-02T05:40:49;23.10;;;11.57;;
10715;SDS011;5409;42.620;23.316;2024-03-02T05:43:14;25.10;;;10.20;;
10715;SDS011;5409;42.620;23.316;2024-03-02T05:45:40;23.50;;;11.15;;
10715;SDS011;5409;42.620;23.316;2024-03-02T05:48:08;24.33;;;12.10;;
10715;SDS011;5409;42.620;23.316;2024-03-02T05:50:34;29.90;;;11.93;;
10715;SDS011;5409;42.620;23.316;2024-03-02T05:53:00;27.90;;;12.52;;
10715;SDS011;5409;42.620;23.316;2024-03-02T05:55:25;28.85;;;12.68;;
10715;SDS011;5409;42.620;23.316;2024-03-02T05:57:51;28.08;;;11.23;;
10715;SDS011;5409;42.620;23.316;2024-03-02T06:00:31;28.50;;;13.20;;
10715;SDS011;5409;42.620;23.316;2024-03-02T06:02:57;29.40;;;13.13;;
10715;SDS011;5409;42.620;23.316;2024-03-02T06:05:22;23.75;;;11.25;;
10715;SDS011;5409;42.620;23.316;2024-03-02T06:07:48;22.67;;;10.23;;
10715;SDS011;5409;42.620;23.316;2024-03-02T06:10:13;24.08;;;11.55;;
10715;SDS011;5409;42.620;23.316;2024-03-02T06:12:39;23.70;;;11.23;;
10715;SDS011;5409;42.620;23.316;2024-03-02T06:15:05;26.60;;;10.85;;
10715;SDS011;5409;42.620;23.316;2024-03-02T06:17:30;23.80;;;11.43;;
10715;SDS011;5409;42.620;23.316;2024-03-02T06:19:55;28.85;;;11.40;;
10715;SDS011;5409;42.620;23.316;2024-03-02T06:22:21;27.05;;;10.55;;
10715;SDS011;5409;42.620;23.316;2024-03-02T06:24:49;24.25;;;12.20;;
10715;SDS011;5409;42.620;23.316;2024-03-02T06:27:15;29.05;;;11.82;;
10715;SDS011;5409;42.620;23.316;2024-03-02T06:29:40;21.20;;;10.27;;
10715;SDS011;5409;42.620;23.316;2024-03-02T06:32:06;24.20;;;10.05;;
10715;SDS011;5409;42.620;23.316;2024-03-02T06:34:31;21.42;;;11.05;;
10715;SDS011;5409;42.620;23.316;2024-03-02T06:36:56;22.10;;;9.88;;
10715;SDS011;5409;42.620;23.316;2024-03-02T06:39:22;22.83;;;11.30;;
10715;SDS011;5409;42.620;23.316;2024-03-02T06:41:47;24.25;;;10.45;;
10715;SDS011;5409;42.620;23.316;2024-03-02T06:44:12;21.55;;;9.15;;
10715;SDS011;5409;42.620;23.316;2024-03-02T06:46:38;23.48;;;9.65;;
10715;SDS011;5409;42.620;23.316;2024-03-02T06:49:04;18.48;;;9.45;;
10715;SDS011;5409;42.620;23.316;2024-03-02T06:51:29;20.88;;;10.18;;
10715;SDS011;5409;42.620;23.316;2024-03-02T06:53:55;21.15;;;10.10;;
10715;SDS011;5409;42.620;23.316;2024-03-02T06:56:20;26.70;;;11.45;;
10715;SDS011;5409;42.620;23.316;2024-03-02T06:58:46;22.88;;;9.75;;
10715;SDS011;5409;42.620;23.316;2024-03-02T07:01:11;20.63;;;11.02;;
10715;SDS011;5409;42.620;23.316;2024-03-02T07:03:37;18.08;;;9.80;;
10715;SDS011;5409;42.620;23.316;2024-03-02T07:06:04;20.52;;;8.75;;
10715;SDS011;5409;42.620;23.316;2024-03-02T07:08:30;19.67;;;9.93;;
10715;SDS011;5409;42.620;23.316;2024-03-02T07:10:55;22.55;;;10.25;;
10715;SDS011;5409;42.620;23.316;2024-03-02T07:13:21;19.25;;;9.52;;
10715;SDS011;5409;42.620;23.316;2024-03-02T07:15:47;19.85;;;9.18;;
10715;SDS011;5409;42.620;23.316;2024-03-02T07:18:27;24.70;;;10.30;;
10715;SDS011;5409;42.620;23.316;2024-03-02T07:20:53;17.92;;;9.30;;
10715;SDS011;5409;42.620;23.316;2024-03-02T07:23:18;20.67;;;8.93;;
10715;SDS011;5409;42.620;23.316;2024-03-02T07:25:45;15.25;;;8.48;;
10715;SDS011;5409;42.620;23.316;2024-03-02T07:28:11;17.90;;;8.55;;
10715;SDS011;5409;42.620;23.316;2024-03-02T07:30:36;17.60;;;9.90;;
10715;SDS011;5409;42.620;23.316;2024-03-02T07:33:03;23.17;;;9.35;;
10715;SDS011;5409;42.620;23.316;2024-03-02T07:35:29;17.15;;;8.70;;
10715;SDS011;5409;42.620;23.316;2024-03-02T07:37:56;35.90;;;14.38;;
10715;SDS011;5409;42.620;23.316;2024-03-02T07:40:22;21.13;;;9.75;;
10715;SDS011;5409;42.620;23.316;2024-03-02T07:42:48;19.27;;;8.65;;
10715;SDS011;5409;42.620;23.316;2024-03-02T07:45:14;19.48;;;9.70;;
10715;SDS011;5409;42.620;23.316;2024-03-02T07:47:39;22.73;;;9.43;;
10715;SDS011;5409;42.620;23.316;2024-03-02T07:50:05;23.33;;;10.40;;
10715;SDS011;5409;42.620;23.316;2024-03-02T07:52:31;19.40;;;9.23;;
10715;SDS011;5409;42.620;23.316;2024-03-02T07:54:57;20.23;;;9.38;;
10715;SDS011;5409;42.620;23.316;2024-03-02T07:57:22;17.08;;;8.55;;
10715;SDS011;5409;42.620;23.316;2024-03-02T07:59:48;16.30;;;8.30;;
10715;SDS011;5409;42.620;23.316;2024-03-02T08:02:14;14.65;;;8.38;;
10715;SDS011;5409;42.620;23.316;2024-03-02T08:04:40;17.15;;;9.18;;
10715;SDS011;5409;42.620;23.316;2024-03-02T08:07:05;20.70;;;10.10;;
10715;SDS011;5409;42.620;23.316;2024-03-02T08:09:31;19.25;;;9.68;;
10715;SDS011;5409;42.620;23.316;2024-03-02T08:11:56;24.27;;;11.77;;
10715;SDS011;5409;42.620;23.316;2024-03-02T08:14:23;23.48;;;11.18;;
10715;SDS011;5409;42.620;23.316;2024-03-02T08:16:48;24.45;;;11.05;;
10715;SDS011;5409;42.620;23.316;2024-03-02T08:19:14;20.73;;;9.77;;
10715;SDS011;5409;42.620;23.316;2024-03-02T08:21:40;20.25;;;10.13;;
10715;SDS011;5409;42.620;23.316;2024-03-02T08:24:05;20.10;;;9.77;;
10715;SDS011;5409;42.620;23.316;2024-03-02T08:26:31;24.25;;;10.07;;
10715;SDS011;5409;42.620;23.316;2024-03-02T08:28:57;21.33;;;10.00;;
10715;SDS011;5409;42.620;23.316;2024-03-02T08:31:23;21.15;;;10.70;;
10715;SDS011;5409;42.620;23.316;2024-03-02T08:33:49;23.25;;;11.13;;
10715;SDS011;5409;42.620;23.316;2024-03-02T08:36:14;23.80;;;10.75;;
10715;SDS011;5409;42.620;23.316;2024-03-02T08:38:40;23.67;;;11.30;;
10715;SDS011;5409;42.620;23.316;2024-03-02T08:41:06;24.75;;;11.35;;
10715;SDS011;5409;42.620;23.316;2024-03-02T08:43:32;25.20;;;10.60;;
10715;SDS011;5409;42.620;23.316;2024-03-02T08:45:58;23.40;;;11.55;;
10715;SDS011;5409;42.620;23.316;2024-03-02T08:48:23;27.73;;;12.75;;
10715;SDS011;5409;42.620;23.316;2024-03-02T08:50:49;22.92;;;11.18;;
10715;SDS011;5409;42.620;23.316;2024-03-02T08:53:14;25.95;;;10.68;;
10715;SDS011;5409;42.620;23.316;2024-03-02T08:55:43;21.27;;;10.80;;
10715;SDS011;5409;42.620;23.316;2024-03-02T08:58:12;23.52;;;11.10;;
10715;SDS011;5409;42.620;23.316;2024-03-02T09:00:38;22.45;;;10.65;;
10715;SDS011;5409;42.620;23.316;2024-03-02T09:03:03;26.55;;;11.13;;
10715;SDS011;5409;42.620;23.316;2024-03-02T09:05:29;23.13;;;11.18;;
10715;SDS011;5409;42.620;23.316;2024-03-02T09:07:54;19.63;;;9.50;;
10715;SDS011;5409;42.620;23.316;2024-03-02T09:10:20;20.55;;;8.73;;
10715;SDS011;5409;42.620;23.316;2024-03-02T09:12:46;20.40;;;10.35;;
10715;SDS011;5409;42.620;23.316;2024-03-02T09:15:11;17.90;;;9.45;;
10715;SDS011;5409;42.620;23.316;2024-03-02T09:17:37;21.30;;;11.90;;
10715;SDS011;5409;42.620;23.316;2024-03-02T09:20:02;19.48;;;9.63;;
10715;SDS011;5409;42.620;23.316;2024-03-02T09:22:29;20.73;;;10.18;;
10715;SDS011;5409;42.620;23.316;2024-03-02T09:24:55;18.52;;;9.25;;
10715;SDS011;5409;42.620;23.316;2024-03-02T09:27:20;21.58;;;10.23;;
10715;SDS011;5409;42.620;23.316;2024-03-02T09:29:46;22.20;;;10.85;;
10715;SDS011;5409;42.620;23.316;2024-03-02T09:32:14;18.48;;;9.93;;
10715;SDS011;5409;42.620;23.316;2024-03-02T09:34:40;21.80;;;10.45;;
10715;SDS011;5409;42.620;23.316;2024-03-02T09:37:06;17.67;;;9.68;;
10715;SDS011;5409;42.620;23.316;2024-03-02T09:39:31;19.67;;;9.02;;
10715;SDS011;5409;42.620;23.316;2024-03-02T09:41:57;19.20;;;9.80;;
10715;SDS011;5409;42.620;23.316;2024-03-02T09:44:24;23.50;;;10.70;;
10715;SDS011;5409;42.620;23.316;2024-03-02T09:46:50;19.45;;;10.93;;
10715;SDS011;5409;42.620;23.316;2024-03-02T09:49:17;20.58;;;10.07;;
10715;SDS011;5409;42.620;23.316;2024-03-02T09:51:46;23.35;;;10.52;;
10715;SDS011;5409;42.620;23.316;2024-03-02T09:54:13;20.17;;;9.88;;
10715;SDS011;5409;42.620;23.316;2024-03-02T09:56:39;19.92;;;9.93;;
10715;SDS011;5409;42.620;23.316;2024-03-02T09:59:04;19.48;;;10.82;;
10715;SDS011;5409;42.620;23.316;2024-03-02T10:01:30;20.10;;;9.25;;
10715;SDS011;5409;42.620;23.316;2024-03-02T10:03:58;21.88;;;9.88;;
10715;SDS011;5409;42.620;23.316;2024-03-02T10:06:25;22.75;;;11.02;;
10715;SDS011;5409;42.620;23.316;2024-03-02T10:08:52;17.42;;;7.63;;
10715;SDS011;5409;42.620;23.316;2024-03-02T10:11:34;16.23;;;7.80;;
10715;SDS011;5409;42.620;23.316;2024-03-02T10:16:38;13.45;;;7.50;;
10715;SDS011;5409;42.620;23.316;2024-03-02T10:21:50;12.32;;;6.78;;
10715;SDS011;5409;42.620;23.316;2024-03-02T10:24:16;21.25;;;9.90;;
10715;SDS011;5409;42.620;23.316;2024-03-02T10:26:43;16.58;;;9.23;;
10715;SDS011;5409;42.620;23.316;2024-03-02T10:29:09;22.30;;;10.30;;
10715;SDS011;5409;42.620;23.316;2024-03-02T10:31:36;19.40;;;10.52;;
10715;SDS011;5409;42.620;23.316;2024-03-02T10:34:02;24.58;;;10.15;;
10715;SDS011;5409;42.620;23.316;2024-03-02T10:36:28;22.48;;;11.02;;
10715;SDS011;5409;42.620;23.316;2024-03-02T10:38:56;23.17;;;9.98;;
10715;SDS011;5409;42.620;23.316;2024-03-02T10:41:26;23.45;;;10.98;;
10715;SDS011;5409;42.620;23.316;2024-03-02T10:43:52;27.25;;;10.60;;
10715;SDS011;5409;42.620;23.316;2024-03-02T10:46:24;30.50;;;11.98;;
10715;SDS011;5409;42.620;23.316;2024-03-02T10:48:54;22.75;;;10.63;;
10715;SDS011;5409;42.620;23.316;2024-03-02T10:51:19;24.70;;;13.18;;
10715;SDS011;5409;42.620;23.316;2024-03-02T10:53:44;25.05;;;11.88;;
10715;SDS011;5409;42.620;23.316;2024-03-02T10:56:10;25.25;;;12.48;;
10715;SDS011;5409;42.620;23.316;2024-03-02T10:58:41;25.83;;;11.35;;
10715;SDS011;5409;42.620;23.316;2024-03-02T11:01:07;27.60;;;11.13;;
10715;SDS011;5409;42.620;23.316;2024-03-02T11:03:35;26.08;;;11.75;;
10715;SDS011;5409;42.620;23.316;2024-03-02T11:06:03;26.80;;;11.00;;
10715;SDS011;5409;42.620;23.316;2024-03-02T11:08:32;23.90;;;11.15;;
10715;SDS011;5409;42.620;23.316;2024-03-02T11:11:02;24.35;;;10.43;;
10715;SDS011;5409;42.620;23.316;2024-03-02T11:13:32;24.65;;;10.43;;
10715;SDS011;5409;42.620;23.316;2024-03-02T11:15:59;29.17;;;11.93;;
10715;SDS011;5409;42.620;23.316;2024-03-02T11:18:30;26.92;;;11.70;;
10715;SDS011;5409;42.620;23.316;2024-03-02T11:20:57;23.70;;;11.60;;
10715;SDS011;5409;42.620;23.316;2024-03-02T11:23:33;22.05;;;10.63;;
10715;SDS011;5409;42.620;23.316;2024-03-02T11:28:44;30.63;;;13.27;;
10715;SDS011;5409;42.620;23.316;2024-03-02T11:31:10;32.13;;;15.77;;
10715;SDS011;5409;42.620;23.316;2024-03-02T11:33:36;31.85;;;14.88;;
10715;SDS011;5409;42.620;23.316;2024-03-02T11:36:01;28.75;;;12.63;;
10715;SDS011;5409;42.620;23.316;2024-03-02T11:38:27;31.08;;;12.13;;
10715;SDS011;5409;42.620;23.316;2024-03-02T11:40:54;26.23;;;12.38;;
10715;SDS011;5409;42.620;23.316;2024-03-02T11:43:19;26.67;;;13.32;;
10715;SDS011;5409;42.620;23.316;2024-03-02T11:45:46;30.17;;;12.48;;
10715;SDS011;5409;42.620;23.316;2024-03-02T11:48:13;23.58;;;11.30;;
10715;SDS011;5409;42.620;23.316;2024-03-02T11:50:46;32.45;;;13.85;;
10715;SDS011;5409;42.620;23.316;2024-03-02T11:53:14;26.20;;;14.57;;
10715;SDS011;5409;42.620;23.316;2024-03-02T11:55:40;41.60;;;19.95;;
10715;SDS011;5409;42.620;23.316;2024-03-02T11:58:06;36.53;;;17.33;;
10715;SDS011;5409;42.620;23.316;2024-03-02T12:00:32;32.50;;;14.95;;
10715;SDS011;5409;42.620;23.316;2024-03-02T12:03:01;32.28;;;12.43;;
10715;SDS011;5409;42.620;23.316;2024-03-02T12:05:31;26.85;;;13.00;;
10715;SDS011;5409;42.620;23.316;2024-03-02T12:07:58;28.95;;;12.82;;
10715;SDS011;5409;42.620;23.316;2024-03-02T12:10:25;28.70;;;12.43;;
10715;SDS011;5409;42.620;23.316;2024-03-02T12:12:55;39.42;;;21.98;;
10715;SDS011;5409;42.620;23.316;2024-03-02T12:15:39;27.38;;;15.75;;
10715;SDS011;5409;42.620;23.316;2024-03-02T12:18:05;24.08;;;12.82;;
10715;SDS011;5409;42.620;23.316;2024-03-02T12:20:31;25.40;;;12.55;;
10715;SDS011;5409;42.620;23.316;2024-03-02T12:22:58;28.77;;;12.68;;
10715;SDS011;5409;42.620;23.316;2024-03-02T12:25:25;24.85;;;12.85;;
10715;SDS011;5409;42.620;23.316;2024-03-02T12:27:55;25.27;;;12.13;;
10715;SDS011;5409;42.620;23.316;2024-03-02T12:30:22;28.95;;;11.73;;
10715;SDS011;5409;42.620;23.316;2024-03-02T12:32:48;23.50;;;11.65;;
10715;SDS011;5409;42.620;23.316;2024-03-02T12:35:14;25.27;;;12.20;;
10715;SDS011;5409;42.620;23.316;2024-03-02T12:37:50;28.88;;;12.95;;
10715;SDS011;5409;42.620;23.316;2024-03-02T12:40:17;26.77;;;10.98;;
10715;SDS011;5409;42.620;23.316;2024-03-02T12:42:44;24.20;;;11.45;;
10715;SDS011;5409;42.620;23.316;2024-03-02T12:45:13;22.55;;;11.38;;
10715;SDS011;5409;42.620;23.316;2024-03-02T12:47:40;21.38;;;11.50;;
10715;SDS011;5409;42.620;23.316;2024-03-02T12:50:07;22.30;;;11.88;;
10715;SDS011;5409;42.620;23.316;2024-03-02T12:52:33;22.83;;;11.27;;
10715;SDS011;5409;42.620;23.316;2024-03-02T12:55:03;22.05;;;10.73;;
10715;SDS011;5409;42.620;23.316;2024-03-02T12:57:30;24.75;;;11.40;;
10715;SDS011;5409;42.620;23.316;2024-03-02T13:00:00;25.77;;;12.55;;
10715;SDS011;5409;42.620;23.316;2024-03-02T13:02:35;27.35;;;14.88;;
10715;SDS011;5409;42.620;23.316;2024-03-02T13:05:01;23.13;;;12.50;;
10715;SDS011;5409;42.620;23.316;2024-03-02T13:07:27;28.75;;;13.77;;
10715;SDS011;5409;42.620;23.316;2024-03-02T13:09:54;27.52;;;12.75;;
10715;SDS011;5409;42.620;23.316;2024-03-02T13:12:21;21.42;;;12.25;;
10715;SDS011;5409;42.620;23.316;2024-03-02T13:14:53;27.90;;;14.52;;
10715;SDS011;5409;42.620;23.316;2024-03-02T13:17:19;27.20;;;13.48;;
10715;SDS011;5409;42.620;23.316;2024-03-02T13:19:57;25.42;;;12.43;;
10715;SDS011;5409;42.620;23.316;2024-03-02T13:22:27;28.00;;;13.15;;
10715;SDS011;5409;42.620;23.316;2024-03-02T13:24:52;28.00;;;13.10;;
10715;SDS011;5409;42.620;23.316;2024-03-02T13:27:21;25.20;;;14.02;;
10715;SDS011;5409;42.620;23.316;2024-03-02T13:29:46;25.13;;;14.13;;
10715;SDS011;5409;42.620;23.316;2024-03-02T13:32:13;28.02;;;15.10;;
10715;SDS011;5409;42.620;23.316;2024-03-02T13:34:39;28.55;;;13.00;;
10715;SDS011;5409;42.620;23.316;2024-03-02T13:37:04;24.30;;;12.63;;
10715;SDS011;5409;42.620;23.316;2024-03-02T13:39:31;23.52;;;11.25;;
10715;SDS011;5409;42.620;23.316;2024-03-02T13:41:57;24.30;;;13.18;;
10715;SDS011;5409;42.620;23.316;2024-03-02T13:44:30;28.45;;;12.90;;
10715;SDS011;5409;42.620;23.316;2024-03-02T13:46:56;29.98;;;13.38;;
10715;SDS011;5409;42.620;23.316;2024-03-02T13:49:22;26.60;;;12.98;;
10715;SDS011;5409;42.620;23.316;2024-03-02T13:51:48;26.35;;;12.85;;
10715;SDS011;5409;42.620;23.316;2024-03-02T13:54:13;28.52;;;14.07;;
10715;SDS011;5409;42.620;23.316;2024-03-02T13:56:39;25.45;;;13.30;;
10715;SDS011;5409;42.620;23.316;2024-03-02T13:59:05;30.42;;;15.75;;
10715;SDS011;5409;42.620;23.316;2024-03-02T14:01:31;28.58;;;13.25;;
10715;SDS011;5409;42.620;23.316;2024-03-02T14:03:57;29.08;;;13.98;;
10715;SDS011;5409;42.620;23.316;2024-03-02T14:06:23;29.33;;;13.88;;
10715;SDS011;5409;42.620;23.316;2024-03-02T14:08:48;33.88;;;14.05;;
10715;SDS011;5409;42.620;23.316;2024-03-02T14:11:14;31.85;;;14.45;;
10715;SDS011;5409;42.620;23.316;2024-03-02T14:13:43;28.17;;;13.75;;
10715;SDS011;5409;42.620;23.316;2024-03-02T14:16:12;30.58;;;14.02;;
10715;SDS011;5409;42.620;23.316;2024-03-02T14:18:37;23.45;;;12.60;;
10715;SDS011;5409;42.620;23.316;2024-03-02T14:21:03;28.20;;;13.80;;
10715;SDS011;5409;42.620;23.316;2024-03-02T14:23:29;28.40;;;14.38;;
10715;SDS011;5409;42.620;23.316;2024-03-02T14:25:54;28.42;;;13.30;;
10715;SDS011;5409;42.620;23.316;2024-03-02T14:28:20;30.60;;;12.65;;